Time;durP1;ratioP1;P1;durP2;ratioP2;P2;SDS_P1;SDS_P2;PMS_P1;PMS_P2;Temp;Humidity;BMP_temperature;BMP_pressure;BME280_temperature;BME280_humidity;BME280_pressure;Samples;Min_cycle;Max_cycle;Signal;HPM_P1;HPM_P2
2021/05/04 00:00:36;;;;;;;3.88;1.80;;;;;;;18.15;42.17;99042.47;6278128;22;20443;-78
2021/05/04 00:03:02;;;;;;;4.05;1.20;;;;;;;18.13;40.80;99039.34;6303774;22;20018;-78
2021/05/04 00:05:27;;;;;;;3.53;1.63;;;;;;;18.12;41.30;99043.94;6272801;22;20016;-78
2021/05/04 00:07:53;;;;;;;3.17;1.67;;;;;;;18.09;40.14;99036.47;6274097;22;20076;-78
2021/05/04 00:10:19;;;;;;;4.97;2.20;;;;;;;18.05;39.61;99043.66;6247393;22;20413;-78
2021/05/04 00:12:45;;;;;;;1.77;1.40;;;;;;;18.04;40.01;99042.88;6246986;22;20011;-79
2021/05/04 00:15:11;;;;;;;3.45;1.85;;;;;;;18.01;40.03;99035.38;6272794;22;20352;-79
2021/05/04 00:17:36;;;;;;;4.22;1.38;;;;;;;18.00;40.28;99038.44;6247372;22;20003;-78
2021/05/04 00:20:03;;;;;;;5.47;1.25;;;;;;;17.98;40.63;99044.16;6247053;22;20447;-78
2021/05/04 00:22:28;;;;;;;3.67;1.70;;;;;;;17.97;40.23;99055.28;6274478;22;20004;-78
2021/05/04 00:24:53;;;;;;;3.72;1.63;;;;;;;17.93;40.59;99050.53;6272485;22;20007;-78
2021/05/04 00:27:19;;;;;;;2.33;1.52;;;;;;;17.96;40.71;99042.91;6247445;22;20575;-78
2021/05/04 00:29:46;;;;;;;2.17;1.60;;;;;;;17.97;41.94;99050.69;6246851;22;20081;-78
2021/05/04 00:32:11;;;;;;;1.45;1.35;;;;;;;17.98;42.43;99065.00;6247052;22;20003;-79
2021/05/04 00:34:36;;;;;;;2.50;1.73;;;;;;;17.99;42.71;99061.19;6247262;22;19995;-79
2021/05/04 00:37:02;;;;;;;2.08;1.88;;;;;;;17.96;43.43;99070.75;6246903;22;20004;-78
2021/05/04 00:39:34;;;;;;;2.50;1.90;;;;;;;17.99;44.37;99074.72;6247317;22;20014;-79
2021/05/04 00:41:59;;;;;;;2.15;1.70;;;;;;;18.01;45.57;99078.69;6246815;22;20003;-79
2021/05/04 00:44:25;;;;;;;2.75;2.15;;;;;;;18.03;46.36;99064.84;6247065;22;20060;-79
2021/05/04 00:46:50;;;;;;;4.38;1.65;;;;;;;18.05;46.56;99060.69;6272341;22;20091;-79
2021/05/04 00:49:15;;;;;;;4.63;1.60;;;;;;;18.06;46.67;99064.19;6272651;22;20069;-79
2021/05/04 00:51:41;;;;;;;3.10;1.70;;;;;;;18.07;46.58;99074.69;6246853;22;20157;-79
2021/05/04 00:54:07;;;;;;;2.85;1.77;;;;;;;18.05;46.76;99079.63;6272413;22;20556;-79
2021/05/04 00:56:34;;;;;;;1.77;1.40;;;;;;;18.04;46.35;99086.16;6272550;22;20035;-79
2021/05/04 00:59:00;;;;;;;2.33;1.93;;;;;;;18.03;46.17;99084.56;6272372;22;20049;-79
2021/05/04 01:01:25;;;;;;;5.35;2.30;;;;;;;18.01;46.25;99086.03;6246643;22;20004;-78
2021/05/04 01:03:52;;;;;;;2.17;1.98;;;;;;;18.01;45.91;99088.72;6246662;22;20018;-79
2021/05/04 01:06:17;;;;;;;3.35;2.05;;;;;;;17.99;46.15;99096.38;6277299;22;20022;-79
2021/05/04 01:08:43;;;;;;;6.13;1.90;;;;;;;17.98;46.35;99092.06;6277508;22;20003;-78
2021/05/04 01:11:09;;;;;;;2.28;2.08;;;;;;;17.94;46.27;99091.88;6303108;22;20007;-79
2021/05/04 01:13:35;;;;;;;5.03;1.55;;;;;;;17.92;46.31;99094.13;6277383;22;19999;-78
2021/05/04 01:16:01;;;;;;;3.47;1.90;;;;;;;17.90;46.49;99101.78;6277402;22;19999;-79
2021/05/04 01:18:27;;;;;;;4.00;1.67;;;;;;;17.89;46.54;99101.00;6303406;22;19999;-79
2021/05/04 01:20:52;;;;;;;3.65;1.73;;;;;;;17.86;46.51;99104.34;6277232;22;20021;-79
2021/05/04 01:23:18;;;;;;;3.95;1.85;;;;;;;17.84;46.90;99098.44;6277532;22;19999;-78
2021/05/04 01:25:43;;;;;;;4.88;3.08;;;;;;;17.80;47.11;99105.63;6302884;22;20061;-79
2021/05/04 01:28:09;;;;;;;5.45;3.80;;;;;;;17.77;47.62;99107.06;6277176;22;20052;-79
2021/05/04 01:30:35;;;;;;;3.95;2.92;;;;;;;17.75;47.53;99109.28;6277501;22;20006;-79
2021/05/04 01:33:01;;;;;;;2.42;1.88;;;;;;;17.73;47.78;99105.31;6277019;22;20051;-79
2021/05/04 01:35:27;;;;;;;3.67;1.70;;;;;;;17.70;47.81;99117.59;6277422;22;20000;-78
2021/05/04 01:37:53;;;;;;;4.18;2.10;;;;;;;17.63;48.06;99121.91;6277101;22;20425;-78
2021/05/04 01:40:19;;;;;;;3.40;1.95;;;;;;;17.59;47.79;99125.25;6277144;22;20010;-78
2021/05/04 01:42:46;;;;;;;2.45;1.77;;;;;;;17.53;47.82;99120.34;6302975;22;20111;-79
2021/05/04 01:45:15;;;;;;;4.53;1.75;;;;;;;17.52;48.05;99118.75;6277454;22;20013;-78
2021/05/04 01:47:41;;;;;;;2.90;1.80;;;;;;;17.49;48.43;99111.25;6277395;22;19999;-78
2021/05/04 01:50:08;;;;;;;2.67;2.38;;;;;;;17.47;48.40;99108.06;6276793;22;20447;-78
2021/05/04 01:52:34;;;;;;;2.22;2.00;;;;;;;17.43;48.74;99114.13;6276844;22;19995;-78
2021/05/04 01:55:00;;;;;;;1.60;1.50;;;;;;;17.39;47.31;99109.69;6302942;22;20073;-78
2021/05/04 01:57:26;;;;;;;2.83;1.80;;;;;;;17.37;45.45;99111.91;6277493;22;20053;-79
2021/05/04 01:59:53;;;;;;;3.30;1.90;;;;;;;17.36;46.45;99111.13;6277106;22;20011;-78
2021/05/04 02:02:18;;;;;;;1.65;1.45;;;;;;;17.37;47.79;99115.41;6277853;22;20086;-78
2021/05/04 02:04:44;;;;;;;2.42;2.13;;;;;;;17.39;48.46;99117.78;6304664;22;20038;-78
2021/05/04 02:07:09;;;;;;;2.00;1.75;;;;;;;17.37;48.90;99126.22;6279038;22;20010;-80
2021/05/04 02:09:34;;;;;;;5.13;1.83;;;;;;;17.38;48.66;99130.53;6279284;22;20030;-78
2021/05/04 02:12:00;;;;;;;3.53;1.60;;;;;;;17.38;48.68;99125.13;6278605;22;20336;-78
2021/05/04 02:14:26;;;;;;;4.10;2.05;;;;;;;17.37;48.77;99117.31;6279430;22;20000;-78
2021/05/04 02:16:51;;;;;;;4.35;2.00;;;;;;;17.35;49.29;99123.03;6278966;22;20098;-78
2021/05/04 02:19:17;;;;;;;3.03;2.00;;;;;;;17.33;48.86;99125.25;6279175;22;20009;-78
2021/05/04 02:21:42;;;;;;;3.63;2.00;;;;;;;17.33;49.33;99136.06;6278913;22;20002;-79
2021/05/04 02:24:08;;;;;;;2.45;1.52;;;;;;;17.30;49.13;99142.13;6278941;22;20010;-79
2021/05/04 02:26:33;;;;;;;3.45;1.58;;;;;;;17.23;49.69;99139.88;6278977;22;20003;-78
2021/05/04 02:28:59;;;;;;;2.83;1.98;;;;;;;17.19;49.90;99140.88;6304608;22;20105;-78
2021/05/04 02:31:24;;;;;;;1.92;1.83;;;;;;;17.19;49.63;99140.88;6278846;22;20028;-78
2021/05/04 02:33:50;;;;;;;2.15;1.90;;;;;;;17.12;49.21;99142.13;6278451;22;19995;-80
2021/05/04 02:36:15;;;;;;;2.45;1.98;;;;;;;17.12;50.00;99141.31;6279096;22;20324;-78
2021/05/04 02:38:41;;;;;;;3.78;1.60;;;;;;;17.09;50.32;99150.06;6278977;22;19999;-78
2021/05/04 02:41:07;;;;;;;3.67;1.98;;;;;;;17.07;49.95;99146.88;6278507;22;20030;-80
2021/05/04 02:43:33;;;;;;;3.28;1.90;;;;;;;17.05;50.32;99144.50;6278921;22;20033;-79
2021/05/04 02:45:59;;;;;;;2.88;2.45;;;;;;;16.99;47.59;99147.66;6278648;22;19999;-80
2021/05/04 02:48:25;;;;;;;1.90;1.70;;;;;;;16.98;47.48;99157.69;6278575;22;20011;-79
2021/05/04 02:50:50;;;;;;;2.10;2.00;;;;;;;16.96;47.15;99163.38;6278426;22;20023;-80
2021/05/04 02:53:16;;;;;;;3.67;2.35;;;;;;;16.95;48.03;99172.63;6304541;22;20475;-80
2021/05/04 02:55:41;;;;;;;3.55;1.92;;;;;;;16.99;49.03;99185.50;6306018;22;20004;-80
2021/05/04 02:58:07;;;;;;;3.10;2.05;;;;;;;16.98;48.89;99186.59;6278344;22;20007;-80
2021/05/04 03:00:33;;;;;;;2.67;1.90;;;;;;;16.98;48.56;99184.72;6278679;22;19995;-80
2021/05/04 03:02:58;;;;;;;2.28;1.98;;;;;;;16.98;48.67;99194.69;6278279;22;20003;-79
2021/05/04 03:05:24;;;;;;;3.35;1.88;;;;;;;16.98;48.58;99197.41;6278368;22;20421;-80
2021/05/04 03:07:50;;;;;;;3.15;1.73;;;;;;;16.96;48.20;99193.09;6304437;22;20041;-78
2021/05/04 03:10:15;;;;;;;2.42;2.00;;;;;;;16.98;48.40;99195.50;6304024;22;20482;-80
2021/05/04 03:12:41;;;;;;;2.63;2.05;;;;;;;16.99;48.14;99199.00;6305915;22;19999;-80
2021/05/04 03:15:07;;;;;;;2.08;1.55;;;;;;;16.98;48.33;99200.91;6278171;22;20007;-80
2021/05/04 03:17:32;;;;;;;2.92;1.70;;;;;;;16.96;47.86;99193.09;6278324;22;20057;-80
2021/05/04 03:19:58;;;;;;;2.13;1.48;;;;;;;16.99;48.25;99197.09;6278187;22;20007;-79
2021/05/04 03:22:24;;;;;;;2.03;1.45;;;;;;;16.99;48.85;99197.09;6278135;22;20086;-79
2021/05/04 03:24:49;;;;;;;5.05;2.08;;;;;;;16.95;49.81;99215.03;6278598;22;19999;-79
2021/05/04 03:27:16;;;;;;;6.65;2.67;;;;;;;16.87;50.39;99213.88;6278173;22;20442;-79
2021/05/04 03:29:41;;;;;;;2.95;2.50;;;;;;;16.85;50.43;99229.59;6278403;22;19999;-79
2021/05/04 03:32:06;;;;;;;5.75;2.58;;;;;;;16.78;50.16;99213.06;6303696;22;20336;-79
2021/05/04 03:34:32;;;;;;;3.33;2.17;;;;;;;16.72;49.93;99217.81;6278297;22;20003;-79
2021/05/04 03:36:58;;;;;;;3.85;2.45;;;;;;;16.66;49.96;99224.44;6278269;22;19999;-79
2021/05/04 03:39:23;;;;;;;5.13;2.05;;;;;;;16.57;49.98;99234.44;6305467;22;20475;-79
2021/05/04 03:41:49;;;;;;;5.10;1.98;;;;;;;16.50;49.72;99237.56;6278505;22;20003;-79
2021/05/04 03:44:14;;;;;;;3.33;1.75;;;;;;;16.43;49.68;99242.59;6278045;22;20390;-79
2021/05/04 03:46:40;;;;;;;5.28;2.35;;;;;;;16.39;49.93;99249.75;6278440;22;20041;-79
2021/05/04 03:49:05;;;;;;;3.50;2.00;;;;;;;16.35;49.57;99232.59;6303789;22;20364;-79
2021/05/04 03:51:31;;;;;;;4.57;2.08;;;;;;;16.35;49.73;99244.16;6304081;22;20004;-80
2021/05/04 03:53:56;;;;;;;2.85;2.15;;;;;;;16.35;49.95;99237.97;6277759;22;20007;-79
2021/05/04 03:56:21;;;;;;;5.18;1.60;;;;;;;16.38;49.87;99248.13;6278324;22;20309;-79
2021/05/04 03:58:47;;;;;;;7.07;2.97;;;;;;;16.43;49.82;99254.22;6278257;22;20176;-79
2021/05/04 04:01:12;;;;;;;3.13;2.83;;;;;;;16.76;49.84;99247.66;6277885;22;19999;-79
2021/05/04 04:03:38;;;;;;;6.95;3.33;;;;;;;17.20;49.42;99245.94;6278195;22;20413;-79
2021/05/04 04:06:03;;;;;;;3.95;2.35;;;;;;;17.78;48.26;99256.63;6277682;22;20007;-80
2021/05/04 04:08:29;;;;;;;3.85;2.78;;;;;;;18.40;47.37;99260.06;6278042;22;20006;-79
2021/05/04 04:10:54;;;;;;;2.75;2.03;;;;;;;19.08;45.73;99266.66;6278017;22;20007;-79
2021/05/04 04:13:20;;;;;;;2.22;1.83;;;;;;;19.71;42.93;99266.72;6303713;22;20004;-80
2021/05/04 04:15:45;;;;;;;2.28;1.83;;;;;;;20.37;41.38;99272.53;6303888;22;20367;-80
2021/05/04 04:18:11;;;;;;;1.65;1.55;;;;;;;20.92;37.89;99271.28;6277729;22;20637;-80
2021/05/04 04:20:36;;;;;;;2.17;1.75;;;;;;;21.42;35.09;99272.03;6277974;22;20447;-80
2021/05/04 04:23:02;;;;;;;1.67;1.58;;;;;;;21.80;33.92;99275.47;6303538;22;20025;-80
2021/05/04 04:25:27;;;;;;;2.50;1.63;;;;;;;22.20;32.18;99269.16;6277724;22;20338;-80
2021/05/04 04:27:53;;;;;;;1.58;1.48;;;;;;;22.53;31.70;99273.53;6277710;22;19999;-79
2021/05/04 04:30:19;;;;;;;2.05;1.45;;;;;;;22.74;30.05;99271.69;6277517;22;20065;-80
2021/05/04 04:32:45;;;;;;;1.55;1.45;;;;;;;22.96;30.32;99278.44;6277791;22;19996;-79
2021/05/04 04:35:11;;;;;;;2.45;1.60;;;;;;;23.16;29.78;99277.38;6277654;22;20027;-80
2021/05/04 04:37:36;;;;;;;1.30;1.02;;;;;;;23.10;28.30;99278.78;6303594;22;20060;-80
2021/05/04 04:40:04;;;;;;;1.48;1.38;;;;;;;22.71;28.00;99284.88;6277568;22;20010;-79
2021/05/04 04:42:29;;;;;;;1.88;1.67;;;;;;;22.15;28.03;99279.50;6277765;22;20050;-79
2021/05/04 04:44:55;;;;;;;1.92;1.70;;;;;;;21.64;28.93;99278.13;6303427;22;20425;-79
2021/05/04 04:47:22;;;;;;;2.55;1.60;;;;;;;21.23;29.53;99280.00;6277478;22;20056;-79
2021/05/04 04:49:47;;;;;;;2.65;1.83;;;;;;;20.70;30.14;99291.50;6277650;22;20033;-79
2021/05/04 04:52:13;;;;;;;1.73;1.60;;;;;;;20.29;30.92;99291.31;6304639;22;20344;-79
2021/05/04 04:54:38;;;;;;;1.80;1.60;;;;;;;20.05;31.66;99285.78;6277679;22;20487;-79
2021/05/04 04:57:04;;;;;;;1.60;1.50;;;;;;;20.04;31.75;99293.13;6277295;22;20003;-79
2021/05/04 04:59:29;;;;;;;2.22;1.85;;;;;;;20.21;32.34;99286.75;6277588;22;20003;-79
2021/05/04 05:01:55;;;;;;;1.45;1.38;;;;;;;20.48;31.74;99290.78;6303417;22;19999;-80
2021/05/04 05:04:20;;;;;;;1.95;1.30;;;;;;;20.51;30.95;99291.22;6277034;22;19999;-79
2021/05/04 05:06:46;;;;;;;1.70;1.58;;;;;;;20.52;31.58;99288.19;6303283;22;19999;-79
2021/05/04 05:09:11;;;;;;;2.22;1.50;;;;;;;20.60;30.69;99290.03;6303049;22;20026;-79
2021/05/04 05:11:38;;;;;;;1.92;1.50;;;;;;;20.70;31.38;99290.69;6303360;22;20006;-79
2021/05/04 05:14:05;;;;;;;2.25;1.40;;;;;;;20.95;30.52;99297.00;6277192;22;20013;-79
2021/05/04 05:16:31;;;;;;;1.52;1.27;;;;;;;21.06;30.33;99297.34;6277455;22;20003;-79
2021/05/04 05:18:57;;;;;;;1.48;1.20;;;;;;;21.10;29.81;99303.66;6303344;22;20052;-79
2021/05/04 05:21:23;;;;;;;1.58;1.02;;;;;;;20.94;30.26;99296.19;6302958;22;20364;-79
2021/05/04 05:23:49;;;;;;;1.85;1.75;;;;;;;20.81;31.46;99283.72;6303271;22;20048;-79
2021/05/04 05:26:16;;;;;;;1.50;1.40;;;;;;;20.69;31.78;99286.41;6277067;22;20003;-79
2021/05/04 05:28:42;;;;;;;2.45;1.60;;;;;;;20.48;31.63;99287.25;6303139;22;20085;-79
2021/05/04 05:31:08;;;;;;;1.92;1.42;;;;;;;20.35;32.33;99285.66;6302843;22;20023;-78
2021/05/04 05:33:34;;;;;;;1.27;1.13;;;;;;;20.18;31.93;99292.84;6303307;22;20356;-78
2021/05/04 05:35:59;;;;;;;4.97;1.70;;;;;;;19.95;32.86;99289.72;6277682;22;20052;-78
2021/05/04 05:38:25;;;;;;;6.38;1.65;;;;;;;19.83;33.12;99291.25;6279660;22;20078;-78
2021/05/04 05:40:51;;;;;;;3.13;1.35;;;;;;;19.68;32.75;99283.69;6279589;22;20014;-78
2021/05/04 05:43:16;;;;;;;4.53;1.70;;;;;;;19.50;33.17;99281.06;6305063;22;19999;-79
2021/05/04 05:45:42;;;;;;;3.35;1.27;;;;;;;19.42;33.34;99286.56;6279391;22;20006;-78
2021/05/04 05:48:07;;;;;;;1.65;1.42;;;;;;;19.56;33.28;99284.41;6279242;22;19999;-79
2021/05/04 05:50:33;;;;;;;4.38;1.65;;;;;;;19.79;34.38;99279.44;6305367;22;20003;-78
2021/05/04 05:52:59;;;;;;;7.78;2.22;;;;;;;20.10;33.74;99277.44;6305032;22;20320;-78
2021/05/04 05:55:24;;;;;;;3.85;1.58;;;;;;;20.36;33.32;99274.47;6279169;22;20060;-78
2021/05/04 05:57:50;;;;;;;1.75;1.27;;;;;;;20.66;32.58;99284.38;6305026;22;20301;-79
2021/05/04 06:00:18;;;;;;;4.95;1.80;;;;;;;20.89;33.06;99288.25;6304786;22;20404;-78
2021/05/04 06:02:45;;;;;;;1.27;1.10;;;;;;;21.00;31.74;99280.44;6279293;22;20007;-78
2021/05/04 06:05:13;;;;;;;1.90;1.70;;;;;;;21.04;31.78;99278.63;6304678;22;20408;-79
2021/05/04 06:07:38;;;;;;;1.27;1.15;;;;;;;21.01;32.01;99281.25;6305328;22;20006;-79
2021/05/04 06:10:04;;;;;;;1.90;1.30;;;;;;;20.88;31.25;99277.72;6304604;22;20007;-79
2021/05/04 06:12:30;;;;;;;1.20;1.00;;;;;;;20.72;31.94;99283.03;6305122;22;20015;-79
2021/05/04 06:14:55;;;;;;;3.58;1.50;;;;;;;20.60;32.85;99287.31;6304996;22;19999;-79
2021/05/04 06:17:21;;;;;;;1.42;1.33;;;;;;;20.46;32.57;99289.53;6304993;22;20212;-79
2021/05/04 06:19:46;;;;;;;4.40;1.50;;;;;;;20.34;32.77;99290.31;6304843;22;20439;-79
2021/05/04 06:22:12;;;;;;;4.65;1.63;;;;;;;20.23;33.55;99300.78;6304686;22;20336;-79
2021/05/04 06:24:37;;;;;;;13.40;2.90;;;;;;;20.08;33.44;99291.34;6305032;22;19999;-79
2021/05/04 06:27:03;;;;;;;7.88;4.20;;;;;;;20.04;34.51;99292.34;6278763;22;20431;-79
2021/05/04 06:29:29;;;;;;;2.92;1.85;;;;;;;19.96;33.05;99294.81;6306217;22;20006;-79
2021/05/04 06:32:02;;;;;;;1.55;1.40;;;;;;;19.94;34.14;99297.03;6304757;22;20420;-78
2021/05/04 06:34:28;;;;;;;2.15;1.73;;;;;;;19.91;32.69;99295.00;6306464;22;19999;-79
2021/05/04 06:36:53;;;;;;;5.38;2.88;;;;;;;19.87;32.92;99299.50;6304899;22;20519;-79
2021/05/04 06:39:19;;;;;;;2.30;2.10;;;;;;;19.80;31.89;99293.81;6304556;22;20399;-79
2021/05/04 06:41:45;;;;;;;2.42;1.95;;;;;;;19.85;32.63;99299.06;6304695;22;20022;-80
2021/05/04 06:44:10;;;;;;;3.72;2.17;;;;;;;19.82;32.85;99294.25;6304146;22;20007;-79
2021/05/04 06:46:36;;;;;;;3.05;2.10;;;;;;;19.84;33.97;99292.03;6304814;22;20429;-78
2021/05/04 06:49:02;;;;;;;6.22;2.95;;;;;;;19.94;33.08;99291.63;6304354;22;20428;-79
2021/05/04 06:51:28;;;;;;;3.45;2.03;;;;;;;20.04;33.17;99293.13;6278656;22;20029;-79
2021/05/04 06:53:53;;;;;;;2.00;1.80;;;;;;;20.20;32.99;99295.22;6304515;22;19999;-79
2021/05/04 06:56:20;;;;;;;2.45;2.25;;;;;;;20.40;32.63;99299.03;6304448;22;20022;-79
2021/05/04 06:58:45;;;;;;;2.53;2.00;;;;;;;20.51;31.88;99291.22;6304386;22;20003;-79
2021/05/04 07:01:11;;;;;;;1.95;1.75;;;;;;;20.72;32.19;99294.69;6304171;22;20003;-79
2021/05/04 07:03:36;;;;;;;4.65;2.20;;;;;;;20.95;31.17;99286.91;6304621;22;20421;-78
2021/05/04 07:06:02;;;;;;;1.95;1.75;;;;;;;21.18;31.14;99286.44;6278264;22;20471;-78
2021/05/04 07:08:28;;;;;;;2.47;2.03;;;;;;;21.31;30.67;99283.72;6304228;22;20010;-79
2021/05/04 07:10:53;;;;;;;4.57;2.15;;;;;;;21.44;30.80;99277.13;6278657;22;19999;-79
2021/05/04 07:13:19;;;;;;;4.53;1.90;;;;;;;21.49;31.04;99276.09;6304065;22;19999;-79
2021/05/04 07:15:46;;;;;;;2.20;2.00;;;;;;;21.47;31.05;99262.03;6305694;22;20359;-79
2021/05/04 07:18:12;;;;;;;2.65;1.80;;;;;;;21.51;30.84;99260.22;6304105;22;20336;-80
2021/05/04 07:20:38;;;;;;;2.03;1.92;;;;;;;21.55;31.27;99261.09;6305645;22;20417;-79
2021/05/04 07:23:10;;;;;;;1.83;1.73;;;;;;;21.49;31.14;99248.88;6277976;22;20397;-79
2021/05/04 07:25:36;;;;;;;1.83;1.73;;;;;;;21.58;30.86;99247.63;6277688;22;19996;-79
2021/05/04 07:28:03;;;;;;;4.07;2.28;;;;;;;21.56;30.20;99249.91;6278542;22;20057;-78
2021/05/04 07:30:31;;;;;;;2.08;1.92;;;;;;;21.51;30.54;99244.69;6278033;22;20009;-78
2021/05/04 07:32:56;;;;;;;2.50;2.30;;;;;;;21.50;30.47;99243.09;6278416;22;20324;-79
2021/05/04 07:35:22;;;;;;;3.35;2.03;;;;;;;21.34;30.22;99240.28;6278232;22;19999;-78
2021/05/04 07:37:47;;;;;;;2.78;2.50;;;;;;;21.28;30.16;99244.38;6304308;22;20424;-78
2021/05/04 07:40:13;;;;;;;3.15;1.73;;;;;;;21.28;30.71;99241.66;6303981;22;20483;-78
2021/05/04 07:42:39;;;;;;;3.10;2.10;;;;;;;21.28;30.19;99233.50;6278444;22;20440;-78
2021/05/04 07:45:05;;;;;;;3.13;1.75;;;;;;;21.20;29.75;99237.97;6278325;22;20333;-78
2021/05/04 07:47:31;;;;;;;2.47;2.28;;;;;;;21.07;30.08;99237.16;6278046;22;20035;-78
2021/05/04 07:49:56;;;;;;;3.55;1.90;;;;;;;21.08;30.55;99235.22;6278292;22;20332;-78
2021/05/04 07:52:23;;;;;;;2.17;2.08;;;;;;;21.08;31.73;99237.94;6305262;22;20381;-78
2021/05/04 07:54:51;;;;;;;2.75;2.33;;;;;;;21.11;31.16;99240.78;6278296;22;20006;-78
2021/05/04 07:57:16;;;;;;;;;;;;;;;21.17;31.01;99243.28;6278410;22;20378;-78
2021/05/04 07:59:42;;;;;;;4.28;2.83;;;;;;;21.14;30.76;99255.66;6277835;22;19899;-78
2021/05/04 08:02:07;;;;;;;3.25;1.90;;;;;;;21.15;30.82;99250.97;6303876;22;20076;-79
2021/05/04 08:04:33;;;;;;;2.40;2.20;;;;;;;21.16;30.17;99247.13;6277466;22;20022;-78
2021/05/04 08:07:01;;;;;;;4.35;2.15;;;;;;;21.15;30.68;99240.88;6278187;22;19999;-78
2021/05/04 08:09:27;;;;;;;2.40;2.20;;;;;;;21.02;29.77;99231.97;6277794;22;20310;-78
2021/05/04 08:11:53;;;;;;;2.25;1.42;;;;;;;20.90;29.79;99246.34;6305028;22;20451;-78
2021/05/04 08:14:19;;;;;;;2.35;2.15;;;;;;;20.77;30.31;99233.91;6277725;22;20006;-78
2021/05/04 08:16:45;;;;;;;2.88;1.77;;;;;;;20.82;29.62;99227.44;6278114;22;20006;-78
2021/05/04 08:19:11;;;;;;;1.80;1.52;;;;;;;20.82;29.86;99244.53;6277542;22;20003;-78
2021/05/04 08:21:36;;;;;;;5.07;2.25;;;;;;;20.70;30.42;99237.16;6277980;22;20014;-78
2021/05/04 08:24:02;;;;;;;3.60;1.88;;;;;;;20.61;31.25;99233.75;6277900;22;20356;-78
2021/05/04 08:26:28;;;;;;;3.55;2.15;;;;;;;20.60;31.63;99232.97;6277557;22;19999;-78
2021/05/04 08:28:57;;;;;;;1.92;1.55;;;;;;;20.63;31.75;99221.41;6277890;22;20010;-78
2021/05/04 08:31:28;;;;;;;2.08;1.83;;;;;;;20.82;31.67;99217.34;5106843;27;938943;-79
2021/05/04 08:33:53;;;;;;;1.70;1.60;;;;;;;20.89;32.21;99212.16;5128272;28;20474;-79
2021/05/04 08:36:20;;;;;;;2.17;1.90;;;;;;;20.92;31.75;99211.47;5127888;28;20057;-79
2021/05/04 08:38:45;;;;;;;1.63;1.40;;;;;;;20.94;32.81;99214.63;5128133;28;20027;-79
2021/05/04 08:41:14;;;;;;;3.58;2.15;;;;;;;21.02;32.16;99215.66;5127722;28;20118;-79
2021/05/04 08:43:45;;;;;;;1.15;1.05;;;;;;;21.06;31.15;99226.63;5127929;28;20413;-79
2021/05/04 08:46:10;;;;;;;1.85;1.30;;;;;;;20.98;31.33;99224.84;5127676;28;20022;-79
2021/05/04 08:48:38;;;;;;;2.80;1.42;;;;;;;20.94;31.42;99224.72;5127534;28;20031;-79
2021/05/04 08:51:03;;;;;;;3.58;1.50;;;;;;;20.96;31.54;99225.19;5127848;28;20043;-79
2021/05/04 08:53:29;;;;;;;1.23;1.10;;;;;;;21.04;31.62;99237.06;5127592;28;20059;-79
2021/05/04 08:55:55;;;;;;;2.10;1.23;;;;;;;21.14;31.41;99225.72;5127704;28;20023;-79
2021/05/04 08:58:21;;;;;;;1.30;1.20;;;;;;;21.25;31.73;99232.28;5127390;28;20030;-79
2021/05/04 09:00:47;;;;;;;2.05;1.33;;;;;;;21.34;31.20;99231.34;5127557;28;20386;-79
2021/05/04 09:03:20;;;;;;;1.17;1.08;;;;;;;21.48;31.49;99220.09;5127001;28;20050;-79
2021/05/04 09:06:09;;;;;;;4.03;1.65;;;;;;;21.58;31.20;99217.69;5128864;27;20023;-79
2021/05/04 09:16:52;;;;;;;1.52;1.33;;;;;;;21.59;30.92;99216.56;5128374;28;20097;-79
2021/05/04 09:21:53;;;;;;;1.90;1.30;;;;;;;21.49;31.55;99200.69;5128527;27;20015;-79
2021/05/04 09:24:20;;;;;;;1.55;1.45;;;;;;;21.52;31.88;99208.16;5128308;27;20024;-78
2021/05/04 09:26:47;;;;;;;3.75;1.40;;;;;;;21.59;32.02;99199.44;5127188;28;20539;-78
2021/05/04 09:29:13;;;;;;;1.67;1.57;;;;;;;21.64;31.51;99198.41;5126807;28;20045;-79
2021/05/04 09:31:40;;;;;;;2.47;1.48;;;;;;;21.62;31.43;99203.38;5126739;27;20277;-78
2021/05/04 09:34:09;;;;;;;1.10;1.10;;;;;;;21.52;30.68;99202.72;5126860;28;20015;-79
2021/05/04 09:36:37;;;;;;;1.33;1.23;;;;;;;21.42;29.78;99201.28;5126324;28;20431;-80
2021/05/04 09:39:04;;;;;;;1.95;1.38;;;;;;;21.26;31.15;99186.81;5126871;28;20019;-80
2021/05/04 09:41:30;;;;;;;1.67;1.55;;;;;;;21.22;31.25;99196.81;5120668;28;20492;-77
2021/05/04 09:43:56;;;;;;;2.00;1.45;;;;;;;21.17;31.82;99186.97;5113222;28;20020;-79
2021/05/04 09:46:45;;;;;;;1.63;1.35;;;;;;;21.14;31.57;99184.13;5112913;28;20031;-78
2021/05/04 09:49:37;;;;;;;1.52;1.42;;;;;;;21.11;31.52;99191.84;5113062;28;20023;-79
2021/05/04 09:52:47;;;;;;;1.08;1.08;;;;;;;21.10;30.95;99186.75;5108432;28;20110;-78
2021/05/04 09:55:16;;;;;;;0.90;0.90;;;;;;;21.11;30.53;99191.84;5112752;28;20019;-78
2021/05/04 09:57:49;;;;;;;1.60;1.10;;;;;;;21.05;30.65;99176.88;5112884;28;20114;-79
2021/05/04 10:00:21;;;;;;;1.40;1.30;;;;;;;21.01;30.99;99183.38;5112798;28;20035;-79
2021/05/04 10:02:50;;;;;;;1.58;1.48;;;;;;;20.95;31.32;99178.16;5112727;28;20077;-78
2021/05/04 10:05:18;;;;;;;2.55;1.60;;;;;;;20.94;31.13;99176.56;5112446;28;20023;-79
2021/05/04 10:07:44;;;;;;;;;;;;;;;20.99;32.49;99158.44;5113216;28;20023;-79
2021/05/04 10:10:12;;;;;;;4.00;1.25;;;;;;;21.01;32.35;99161.63;5112645;28;19912;-78
2021/05/04 10:12:38;;;;;;;3.25;1.63;;;;;;;20.98;32.71;99152.22;5112393;28;20467;-78
2021/05/04 10:15:06;;;;;;;1.10;1.10;;;;;;;21.03;32.35;99156.63;5112617;28;20038;-78
2021/05/04 10:17:36;;;;;;;3.92;1.80;;;;;;;21.07;32.27;99161.03;5112318;28;20076;-78
2021/05/04 10:20:13;;;;;;;1.25;1.15;;;;;;;21.01;31.22;99148.81;5114095;28;20379;-78
2021/05/04 10:22:39;;;;;;;1.38;1.23;;;;;;;21.03;31.83;99162.06;5112227;28;20112;-78
2021/05/04 10:25:05;;;;;;;2.30;1.33;;;;;;;21.06;31.68;99156.72;5112289;28;20027;-78
2021/05/04 10:27:33;;;;;;;1.45;1.15;;;;;;;21.15;31.70;99150.38;5111906;28;20020;-77
2021/05/04 10:30:01;;;;;;;2.28;1.75;;;;;;;21.16;30.66;99155.44;5111815;28;20044;-79
2021/05/04 10:33:00;;;;;;;4.85;1.25;;;;;;;21.22;30.74;99151.34;5113576;28;20372;-79
2021/05/04 10:35:29;;;;;;;1.25;1.13;;;;;;;21.23;30.87;99161.09;5111854;28;20504;-79
2021/05/04 10:37:59;;;;;;;1.88;1.50;;;;;;;21.31;30.74;99143.03;5112025;28;20020;-79
2021/05/04 10:40:30;;;;;;;2.22;1.23;;;;;;;21.38;30.79;99145.19;5111868;28;20019;-80
2021/05/04 10:42:57;;;;;;;1.42;1.33;;;;;;;21.47;30.58;99132.25;5112014;28;20398;-79
2021/05/04 10:45:38;;;;;;;1.63;1.33;;;;;;;21.51;30.15;99132.34;5111585;28;20030;-79
2021/05/04 10:48:04;;;;;;;2.10;1.45;;;;;;;21.57;30.68;99117.38;5112146;28;20035;-79
2021/05/04 10:50:48;;;;;;;2.65;1.38;;;;;;;21.64;30.75;99127.63;5111557;28;20016;-79
2021/05/04 10:53:18;;;;;;;1.52;1.33;;;;;;;21.64;30.51;99124.91;5110914;28;20091;-79
2021/05/04 10:55:53;;;;;;;1.60;1.20;;;;;;;21.69;29.32;99130.91;5112047;28;20024;-79
2021/05/04 10:58:26;;;;;;;1.30;1.10;;;;;;;21.72;29.18;99116.59;5111519;28;20032;-79
2021/05/04 11:00:53;;;;;;;1.83;1.40;;;;;;;21.80;29.28;99116.78;5111735;28;20028;-79
2021/05/04 11:03:42;;;;;;;1.50;1.40;;;;;;;21.78;28.84;99110.91;5111637;28;20015;-79
2021/05/04 11:06:08;;;;;;;3.92;1.48;;;;;;;21.74;28.41;99117.03;5111972;28;20027;-78
2021/05/04 11:08:42;;;;;;;2.25;1.23;;;;;;;21.74;27.72;99125.22;5111274;28;20454;-79
2021/05/04 11:11:28;;;;;;;1.08;0.90;;;;;;;;;;5111658;28;20027;-79
2021/05/04 11:14:00;;;;;;;2.42;1.17;;;;;;;21.58;26.98;99099.88;5111805;28;20023;-79
2021/05/04 11:16:47;;;;;;;2.35;1.48;;;;;;;21.48;27.23;99101.16;5111339;28;20090;-79
2021/05/04 11:19:13;;;;;;;1.43;1.33;;;;;;;21.50;27.14;99109.00;5111458;28;20027;-77
2021/05/04 11:22:04;;;;;;;2.67;1.30;;;;;;;21.50;27.46;99098.88;5111265;28;20031;-77
2021/05/04 11:24:30;;;;;;;1.42;1.33;;;;;;;21.56;27.49;99100.25;5111254;28;20016;-79
2021/05/04 11:26:59;;;;;;;1.88;1.55;;;;;;;21.64;27.93;99089.53;5111365;28;20027;-79
2021/05/04 11:29:41;;;;;;;2.15;1.48;;;;;;;21.77;27.79;99087.56;5110537;28;20091;-78
2021/05/04 11:32:27;;;;;;;2.00;1.50;;;;;;;21.77;27.76;99085.59;5110680;28;20019;-77
2021/05/04 11:34:54;;;;;;;3.08;1.35;;;;;;;21.77;27.53;99093.78;5111073;28;20055;-79
2021/05/04 11:37:20;;;;;;;1.67;1.33;;;;;;;21.77;27.74;99091.06;5111091;28;20027;-79
2021/05/04 11:39:58;;;;;;;1.70;1.23;;;;;;;21.82;27.71;99093.50;5111039;28;20028;-78
2021/05/04 11:42:26;;;;;;;;;;;;;;;21.91;28.29;99096.84;5111240;28;20020;-78
2021/05/04 11:44:52;;;;;;;1.73;1.13;;;;;;;22.02;27.97;99093.59;5110500;28;19984;-78